Aeroporto :
LOGIN :

Iscrizione | Disclaimer

   EN    FR    IT 

 










Sommario :    VFR   VFR Marginale   IFR   IFR Intensivo   IFR Molto Intensivo
Visibilità : 
Base nubi : 
>= 8 km
>= 3000ft
5 / 8 km
1000 / 3000 ft
1500m / 5 km
500 / 1000 ft
800 / 1500m
200 / 500 ft
< 800m
< 200 ft
Simboli :   Temporali  Nebbia  Neve Forte  Precipitazioni Forti  Vento > 20 kt
SIGMETs :   Varie  Temporali  Ghiacco  Turbolenza  Onda orograficha  Ceneri Vulcaniche







- Altitudine del aeroporto : 74 ft
- Codice IATA : MRS
- Carte del aeroporto


LFML - Marseille / Marignane

ULTIMO METAR :
  • 221000Z AUTO 25006KT 9999 // NSC 21/12 Q1016

METARs OBSOLETI :
  • 220930Z AUTO 26006KT 9999 // NSC 20/12 Q1015
  • 220900Z AUTO 25008KT 9999 // NSC 20/12 Q1015
  • 220830Z AUTO 25005KT 9999 // NSC 20/12 Q1015
  • 220800Z AUTO 27004KT 240V300 9999 // NSC 19/11 Q1015
  • 220730Z AUTO 29004KT 260V010 9999 // NSC 18/11 Q1015

TAF TAF LFML
Valido dal 22 a 09 ore il 23 a 15 ore UTC


220800Z 2209/2315 26007KT CAVOK TX26/2213Z TN12/2304Z
TEMPO 2213/2217 22015KT
BECMG 2217/2218 32015KT
BECMG 2223/2301 VRB03KT
PROB30
TEMPO 2304/2306 3000 BR BKN005
BECMG 2308/2310 26008KT
BECMG 2311/2313 20012KT
ATIS : +33 4 42 31 15 15
Nessun NOTAM noto per questo aeroporto.



MetMap, La meteo Aeronautica in un colpo d'occhio ! - Copyright ORBIFLY Dicembre 2007 - Disclaimer

ORBIFLY MET'MAP TEAM :

Programmazione e sviluppo : Alexandra Zaïnal
Concezione e sviluppo : Baudouin d'Aumeries
Co-Programmazione e sviluppo : Marc-Olivier Méhu
Supporto tecnico e logistico : Manuel Goepfert
Aiuto per la traduzione : Arnaldo La Scala

Contatto : metmap@orbifly.com




FONTI E CREDITI :

   NOAA